Aviation Digital Data Service (ADDS)

Output produced by METARs form (2232 UTC 21 May 2022)
found at http://www.aviationweather.gov/metar/data/
 
LHSM 212215Z AUTO VRB01KT CAVOK 15/14 Q1016
LHSM 212145Z AUTO 00000KT CAVOK 16/15 Q1016
LHSM 212115Z AUTO 32003KT 290V360 CAVOK 16/15 Q1016
LHSM 212045Z AUTO VRB02KT CAVOK 16/15 Q1016
LHSM 212015Z AUTO VRB02KT CAVOK 17/15 Q1016
LHSM 211945Z AUTO 22002KT CAVOK 18/15 Q1016
LHSM 211915Z AUTO VRB03KT CAVOK 19/14 Q1016
LHSM 211845Z AUTO 00000KT 9999 FEW060 //////TCU 19/16 Q1016
LHSM 211815Z AUTO 20004KT 9999 //////CB 19/16 Q1016
LHSM 211745Z AUTO VRB01KT 9999 FEW069 //////CB 20/16 Q1015
LHSM 211715Z AUTO 09004KT 070V130 CAVOK 20/16 Q1016
LHSM 211645Z AUTO 04008KT 9999 -SHRA FEW040 BKN058 //////TCU 20/16 Q1016
TAF LHSM 211115Z 2112/2121 28008KT CAVOK 
     PROB40 
     TEMPO 2112/2121 VRB18G32KT 8000 SHRA TSRA BKN050CB